Time;durP1;ratioP1;P1;durP2;ratioP2;P2;SDS_P1;SDS_P2;PMS_P1;PMS_P2;Temp;Humidity;BMP_temperature;BMP_pressure;BME280_temperature;BME280_humidity;BME280_pressure;Samples;Min_cycle;Max_cycle;Signal;HPM_P1;HPM_P2
2021/12/14 00:00:49;;;;;;;32.10;18.13;;;;;;;;;;5043107;28;20397;-88
2021/12/14 00:03:16;;;;;;;30.70;17.60;;;;;;;;;;5043239;28;20420;-87
2021/12/14 00:05:43;;;;;;;33.50;16.53;;;;;;;;;;5041580;28;20462;-87
2021/12/14 00:08:12;;;;;;;28.03;16.03;;;;;;;;;;5042873;28;20830;-86
2021/12/14 00:13:14;;;;;;;31.57;18.20;;;;;;;;;;5046272;28;20498;-87
2021/12/14 00:15:41;;;;;;;29.33;16.47;;;;;;;;;;5042456;28;20776;-87
2021/12/14 00:18:08;;;;;;;35.43;19.50;;;;;;;;;;5029079;28;20427;-87
2021/12/14 00:20:37;;;;;;;28.40;15.10;;;;;;;;;;5030798;28;20427;-87
2021/12/14 00:25:35;;;;;;;45.03;16.67;;;;;;;;;;5030487;28;20557;-87
2021/12/14 00:28:04;;;;;;;27.43;16.93;;;;;;;;;;5030442;28;21014;-87
2021/12/14 00:30:33;;;;;;;35.33;17.03;;;;;;;;;;5030650;28;20513;-87
2021/12/14 00:32:59;;;;;;;28.67;17.20;;;;;;;;;;5027231;28;20427;-87
2021/12/14 00:35:25;;;;;;;30.40;17.73;;;;;;;;;;5030486;28;20427;-87
2021/12/14 00:37:52;;;;;;;25.30;16.40;;;;;;;;;;5028970;28;20542;-87
2021/12/14 00:42:57;;;;;;;30.50;19.00;;;;;;;;;;5105058;27;20558;-86
2021/12/14 00:45:24;;;;;;;33.60;22.67;;;;;;;;;;5102287;28;20443;-87
2021/12/14 00:47:50;;;;;;;24.83;16.70;;;;;;;;;;5096893;28;20396;-87
2021/12/14 00:50:16;;;;;;;36.40;20.37;;;;;;;;;;5095661;28;20493;-87
2021/12/14 00:52:43;;;;;;;38.50;21.30;;;;;;;;;;5093251;28;20526;-87
2021/12/14 00:55:11;;;;;;;40.33;29.27;;;;;;;;;;5093550;28;20425;-87
2021/12/14 00:57:37;;;;;;;48.90;22.50;;;;;;;;;;5093029;28;20442;-86
2021/12/14 01:00:06;;;;;;;107.60;65.10;;;;;;;;;;5094830;28;20417;-86
2021/12/14 07:35:31;;;;;;;160.30;32.22;;;;;;;;;;5104626;27;1233753;-86
2021/12/14 07:38:17;;;;;;;157.70;36.90;;;3.90;99.90;;;;;;5128234;27;20183;-86
2021/12/14 07:40:45;;;;;;;141.53;31.80;;;;;;;;;;5126729;28;20432;-86
2021/12/14 07:43:11;;;;;;;151.87;35.40;;;;;;;;;;5141427;28;20433;-87
2021/12/14 07:45:37;;;;;;;200.70;33.63;;;;;;;;;;5132468;27;20408;-87
2021/12/14 07:48:03;;;;;;;167.23;32.67;;;;;;;;;;5128166;28;20378;-87
2021/12/14 07:50:37;;;;;;;187.37;35.27;;;;;;;;;;5126919;28;20710;-87
2021/12/14 07:53:03;;;;;;;157.50;32.97;;;;;;;;;;5125342;28;20414;-87
2021/12/14 07:55:29;;;;;;;184.57;33.20;;;;;;;;;;5126818;27;20422;-87
2021/12/14 07:57:55;;;;;;;203.40;33.53;;;;;;;;;;5128472;28;20503;-87
2021/12/14 08:00:35;;;;;;;171.30;31.80;;;;;;;;;;5128257;28;20805;-87
2021/12/14 08:03:01;;;;;;;206.80;34.73;;;;;;;;;;5127389;27;20784;-87
2021/12/14 08:05:33;;;;;;;154.50;31.10;;;;;;;;;;5128117;27;20402;-87
2021/12/14 08:07:59;;;;;;;200.33;36.27;;;;;;;;;;5128228;27;20390;-87
2021/12/14 08:10:32;;;;;;;160.10;35.60;;;4.10;99.90;;;;;;5127009;28;20838;-87
2021/12/14 08:13:14;;;;;;;186.63;35.93;;;4.00;99.90;;;;;;5128358;27;20914;-87
2021/12/14 08:15:57;;;;;;;195.80;41.33;;;;;;;;;;5127337;27;20425;-87
2021/12/14 08:18:29;;;;;;;183.90;39.10;;;4.00;99.90;;;;;;5126778;28;20505;-87
2021/12/14 08:21:01;;;;;;;176.90;32.77;;;;;;;;;;5126721;28;20710;-87
2021/12/14 08:23:51;;;;;;;186.33;33.47;;;;;;;;;;5126141;28;20407;-87
2021/12/14 08:26:49;;;;;;;161.93;32.10;;;4.00;99.90;;;;;;5119439;27;20427;-88
2021/12/14 08:29:18;;;;;;;171.73;34.40;;;;;;;;;;5127789;28;20385;-87
2021/12/14 08:31:50;;;;;;;149.80;34.37;;;;;;;;;;5129973;28;20418;-87
2021/12/14 08:34:22;;;;;;;162.33;31.10;;;;;;;;;;5110999;28;20540;-87
2021/12/14 08:36:50;;;;;;;208.33;34.23;;;;;;;;;;5110779;28;20432;-88
2021/12/14 08:39:20;;;;;;;194.37;36.30;;;;;;;;;;5109404;28;20416;-87
2021/12/14 08:41:57;;;;;;;280.47;37.83;;;4.00;99.90;;;;;;5109190;28;20395;-87
2021/12/14 08:44:36;;;;;;;212.60;34.33;;;;;;;;;;5109871;28;20407;-88
2021/12/14 08:47:11;;;;;;;175.20;33.53;;;3.80;99.90;;;;;;5095639;28;20407;-87
2021/12/14 08:49:42;;;;;;;201.73;36.67;;;;;;;;;;5095884;28;20490;-87
2021/12/14 08:52:11;;;;;;;218.67;36.23;;;;;;;;;;5094519;28;20790;-87
2021/12/14 08:54:40;;;;;;;163.60;35.30;;;;;;;;;;5095953;28;20449;-87
2021/12/14 08:57:10;;;;;;;217.90;41.00;;;4.10;99.90;;;;;;5095383;28;20398;-87
2021/12/14 08:59:39;;;;;;;178.70;34.83;;;;;;;;;;5093182;28;20405;-87
2021/12/14 09:02:08;;;;;;;192.53;37.90;;;;;;;;;;5091455;28;20401;-87
2021/12/14 09:07:26;;;;;;;207.87;36.50;;;;;;;;;;5066775;28;21152;-87
2021/12/14 09:09:53;;;;;;;185.47;38.43;;;;;;;;;;5065492;28;20385;-87
2021/12/14 09:12:29;;;;;;;176.57;35.00;;;4.30;99.90;;;;;;5065189;28;20515;-87
2021/12/14 09:14:56;;;;;;;193.33;38.77;;;;;;;;;;5066942;28;20392;-87
2021/12/14 09:17:23;;;;;;;180.33;39.50;;;;;;;;;;5066602;28;20377;-87
2021/12/14 09:19:58;;;;;;;181.37;38.37;;;;;;;;;;5065550;28;20484;-87
2021/12/14 09:22:28;;;;;;;192.90;41.27;;;4.40;99.90;;;;;;5065939;28;20432;-87
2021/12/14 09:24:55;;;;;;;216.10;44.40;;;;;;;;;;5066890;28;20436;-87
2021/12/14 09:27:22;;;;;;;193.50;40.87;;;;;;;;;;5066666;28;20950;-87
2021/12/14 09:29:49;;;;;;;192.43;42.30;;;;;;;;;;5066685;28;20901;-87
2021/12/14 09:32:22;;;;;;;170.27;39.77;;;4.40;99.90;;;;;;5064045;28;20900;-87
2021/12/14 09:34:48;;;;;;;189.03;43.33;;;;;;;;;;5065186;28;20429;-86
2021/12/14 09:37:15;;;;;;;168.37;42.37;;;;;;;;;;5066730;28;20471;-86
2021/12/14 09:39:49;;;;;;;186.87;44.30;;;;;;;;;;5066398;28;20813;-86
2021/12/14 09:42:18;;;;;;;221.93;47.53;;;;;;;;;;5065648;28;20413;-87
2021/12/14 09:44:46;;;;;;;198.67;49.90;;;4.40;99.90;;;;;;5064593;28;20498;-87
2021/12/14 09:47:21;;;;;;;185.87;46.73;;;;;;;;;;5064842;28;20980;-87
2021/12/14 09:49:48;;;;;;;189.30;46.50;;;;;;;;;;5066143;28;20655;-87
2021/12/14 09:52:19;;;;;;;189.73;45.77;;;;;;;;;;5065884;28;20417;-87
2021/12/14 09:54:48;;;;;;;209.23;50.77;;;;;;;;;;5065705;28;20852;-87
2021/12/14 09:57:17;;;;;;;186.50;50.80;;;;;;;;;;5066971;28;20410;-87
2021/12/14 09:59:43;;;;;;;179.57;45.93;;;;;;;;;;5067188;28;20930;-87
2021/12/14 10:02:09;;;;;;;159.83;40.87;;;;;;;;;;5065652;28;20398;-87
2021/12/14 10:04:47;;;;;;;180.23;52.10;;;4.50;99.90;;;;;;5067027;28;20484;-86
2021/12/14 10:07:13;;;;;;;153.87;46.77;;;;;;;;;;5067260;28;20479;-86
2021/12/14 10:09:42;;;;;;;180.37;46.77;;;;;;;;;;5064043;28;20414;-87
2021/12/14 10:15:10;;;;;;;150.43;44.03;;;;;;;;;;5056700;28;20495;-87
2021/12/14 10:17:39;;;;;;;168.43;43.23;;;;;;;;;;5057424;28;20415;-87
2021/12/14 10:20:05;;;;;;;143.07;43.33;;;;;;;;;;5052509;28;20774;-87
2021/12/14 10:22:31;;;;;;;151.63;44.20;;;;;;;;;;5050573;28;20744;-87
2021/12/14 10:25:03;;;;;;;165.73;43.00;;;;;;;;;;5051881;28;20473;-86
2021/12/14 10:27:30;;;;;;;149.13;44.40;;;;;;;;;;5052462;28;20446;-86
2021/12/14 10:29:59;;;;;;;170.03;46.40;;;;;;;;;;5054946;28;20476;-86
2021/12/14 10:32:28;;;;;;;127.00;42.50;;;;;;;;;;5055872;28;20406;-89
2021/12/14 10:35:01;;;;;;;127.67;38.50;;;;;;;;;;5052059;28;20422;-88
2021/12/14 10:37:38;;;;;;;123.10;39.33;;;;;;;;;;5052008;28;20876;-87
2021/12/14 10:43:32;;;;;;;95.30;37.00;;;;;;;;;;5053941;28;20468;-86
